This is the latest recevied weather packets stored in our database for station/object K5MJM. If no packets are shown the sender has not sent any weather packets the latest 10 day(s).
| Time | Temp. | Humidity | Pressure | Rain* | Wind** | Luminosity | Snow |
|---|---|---|---|---|---|---|---|
| 1777196738 | 17.22° C | 84% | 1007.6 hPa | 0 mm | - | - | - |
| 1777194920 | 17.78° C | 84% | 1007.7 hPa | 0 mm | - | - | - |
| 1777189518 | 18.89° C | 85% | 1007.5 hPa | 0 mm | - | - | - |
| 1777185920 | 19.44° C | 85% | 1007.9 hPa | 0 mm | - | - | - |
| 1777184118 | 19.44° C | 85% | 1008 hPa | 0 mm | - | - | - |
| 1777181718 | 20° C | 85% | 1008.3 hPa | 0 mm | - | - | - |
| 1777179919 | 20° C | 83% | 1008.6 hPa | 0 mm | - | - | - |
| 1777170918 | 20° C | 77% | 1008.5 hPa | 0 mm | - | - | - |
| 1777169718 | 20° C | 76% | 1007.6 hPa | 0 mm | - | - | - |
| 1777168518 | 20.56° C | 75% | 1006.9 hPa | 0 mm | - | - | - |
| 1777166119 | 21.11° C | 74% | 1006.4 hPa | 0 mm | - | - | - |
| 1777165518 | 21.67° C | 74% | 1006.1 hPa | 0 mm | - | - | - |
| 1777164918 | 22.22° C | 73% | 1005.7 hPa | 0 mm | - | - | - |
| 1777164318 | 22.22° C | 73% | 1005.9 hPa | 0 mm | - | - | - |
| 1777162518 | 23.33° C | 70% | 1006.2 hPa | 0 mm | - | - | - |
| 1777161919 | 23.33° C | 69% | 1006.1 hPa | 0 mm | - | - | - |
| 1777161318 | 23.89° C | 68% | 1006.2 hPa | 0 mm | - | - | - |
| 1777160118 | 24.44° C | 66% | 1006.4 hPa | 0 mm | - | - | - |
| 1777147519 | 21.11° C | 76% | 1007.3 hPa | 0 mm | - | - | - |
| 1777142119 | 20° C | 75% | 1007.6 hPa | 0 mm | - | - | - |
| 1777138519 | 20.56° C | 73% | 1007.8 hPa | 0 mm | - | - | - |
| 1777137919 | 20.56° C | 73% | 1007.8 hPa | 0 mm | - | - | - |
| 1777136718 | 20.56° C | 73% | 1008.1 hPa | 0 mm | - | - | - |
| 1777128918 | 18.89° C | 73% | 1008.7 hPa | 0 mm | - | - | - |
| 1777128319 | 18.33° C | 75% | 1008.6 hPa | 0 mm | - | - | - |
* Rain latest hour (hover to see other rain measurements)
** Current wind speed in m/s (hover to see current wind gust speed)